createdAt,value
2024-02-17T00:00:25.792Z,1.03
2024-02-17T00:03:15.409Z,1.00
2024-02-17T00:05:43.730Z,0.95
2024-02-17T00:08:11.817Z,0.90
2024-02-17T00:10:39.770Z,0.87
2024-02-17T00:13:07.709Z,0.81
2024-02-17T00:15:36.114Z,0.78
2024-02-17T00:18:05.128Z,0.77
2024-02-17T00:20:33.555Z,0.77
2024-02-17T00:23:01.696Z,0.77
2024-02-17T00:25:29.649Z,0.74
2024-02-17T00:27:57.893Z,0.69
2024-02-17T00:30:26.133Z,0.66
2024-02-17T00:32:54.524Z,0.62
2024-02-17T00:35:22.634Z,0.60
2024-02-17T00:37:50.605Z,0.58
2024-02-17T00:40:19.390Z,0.59
2024-02-17T00:42:47.255Z,0.59
2024-02-17T00:45:15.312Z,0.58
2024-02-17T00:47:43.536Z,0.59
2024-02-17T00:50:12.694Z,0.61
2024-02-17T00:52:40.870Z,0.61
2024-02-17T00:55:09.197Z,0.60
2024-02-17T00:57:37.246Z,0.56
2024-02-17T01:00:05.904Z,0.53
2024-02-17T01:02:34.150Z,0.48
2024-02-17T01:05:02.302Z,0.46
2024-02-17T01:07:30.637Z,0.44
2024-02-17T01:09:58.922Z,0.43
2024-02-17T01:12:27.059Z,0.44
2024-02-17T01:14:55.033Z,0.44
2024-02-17T01:17:22.905Z,0.41
2024-02-17T01:19:51.145Z,0.41
2024-02-17T01:22:19.214Z,0.42
2024-02-17T01:24:47.874Z,0.42
2024-02-17T01:27:16.378Z,0.41
2024-02-17T01:29:44.545Z,0.38
2024-02-17T01:32:12.694Z,0.36
2024-02-17T01:34:40.636Z,0.32
2024-02-17T01:37:08.745Z,0.27
2024-02-17T01:39:36.653Z,0.25
2024-02-17T01:42:05.027Z,0.24
2024-02-17T01:44:32.981Z,0.21
2024-02-17T01:47:01.216Z,0.19
2024-02-17T01:49:29.714Z,0.15
2024-02-17T01:51:59.337Z,0.16
2024-02-17T01:54:28.200Z,0.16
2024-02-17T01:56:58.043Z,0.13
2024-02-17T01:59:26.766Z,0.10
2024-02-17T02:01:56.045Z,0.09
2024-02-17T02:04:25.035Z,0.08
2024-02-17T02:06:53.364Z,0.08
2024-02-17T02:09:24.930Z,0.06
2024-02-17T02:11:54.755Z,0.05
2024-02-17T02:14:22.904Z,0.03
2024-02-17T02:16:50.996Z,0.01
2024-02-17T02:19:19.282Z,-0.01
2024-02-17T02:21:47.767Z,-0.01
2024-02-17T02:24:16.141Z,-0.02
2024-02-17T02:26:45.111Z,-0.03
2024-02-17T02:29:13.169Z,-0.01
2024-02-17T02:31:41.497Z,0.04
2024-02-17T02:34:09.788Z,0.10
2024-02-17T02:36:37.797Z,0.14
2024-02-17T02:39:06.335Z,0.18
2024-02-17T02:41:34.228Z,0.20
2024-02-17T02:44:02.064Z,0.19
2024-02-17T02:46:29.959Z,0.20
2024-02-17T02:48:58.120Z,0.23
2024-02-17T02:51:26.499Z,0.23
2024-02-17T02:53:54.749Z,0.20
2024-02-17T02:56:22.586Z,0.14
2024-02-17T02:58:50.566Z,0.15
2024-02-17T03:01:18.796Z,0.13
2024-02-17T03:03:50.575Z,0.09
2024-02-17T03:06:19.113Z,0.02
2024-02-17T03:08:47.233Z,-0.03
2024-02-17T03:11:16.168Z,-0.08
2024-02-17T03:13:44.247Z,-0.10
2024-02-17T03:16:12.487Z,-0.13
2024-02-17T03:18:40.730Z,-0.17
2024-02-17T03:21:09.152Z,-0.20
2024-02-17T03:23:37.205Z,-0.22
2024-02-17T03:26:05.388Z,-0.23
2024-02-17T03:28:33.349Z,-0.26
2024-02-17T03:31:02.035Z,-0.30
2024-02-17T03:33:30.687Z,-0.38
2024-02-17T03:35:58.704Z,-0.41
2024-02-17T03:38:26.866Z,-0.42
2024-02-17T03:40:55.037Z,-0.43
2024-02-17T03:43:23.112Z,-0.45
2024-02-17T03:45:51.746Z,-0.45
2024-02-17T03:48:19.879Z,-0.47
2024-02-17T03:50:51.306Z,-0.50
2024-02-17T03:53:22.485Z,-0.51
2024-02-17T03:55:51.549Z,-0.54
2024-02-17T03:58:19.667Z,-0.57
2024-02-17T04:00:48.407Z,-0.60
2024-02-17T04:03:17.112Z,-0.62
2024-02-17T04:05:45.781Z,-0.62
2024-02-17T04:08:13.822Z,-0.63
2024-02-17T04:10:41.906Z,-0.62
2024-02-17T04:13:10.530Z,-0.63
2024-02-17T04:15:40.498Z,-0.63
2024-02-17T04:18:11.146Z,-0.65
2024-02-17T04:20:40.067Z,-0.67
2024-02-17T04:23:08.712Z,-0.71
2024-02-17T04:25:37.102Z,-0.74
2024-02-17T04:28:06.695Z,-0.76
2024-02-17T04:30:35.273Z,-0.78
2024-02-17T04:33:03.420Z,-0.80
2024-02-17T04:35:31.384Z,-0.84
2024-02-17T04:37:59.541Z,-0.86
2024-02-17T04:40:27.740Z,-0.88
2024-02-17T04:42:57.940Z,-0.90
2024-02-17T04:45:26.796Z,-0.92
2024-02-17T04:47:54.885Z,-0.95
2024-02-17T04:50:23.184Z,-0.98
2024-02-17T04:52:51.131Z,-1.00
2024-02-17T04:55:19.828Z,-1.02
2024-02-17T04:57:47.861Z,-1.04
2024-02-17T05:00:16.564Z,-1.07
2024-02-17T05:02:44.663Z,-1.09
2024-02-17T05:05:13.452Z,-1.12
2024-02-17T05:07:41.635Z,-1.15
2024-02-17T05:10:09.815Z,-1.15
2024-02-17T05:12:38.158Z,-1.19
2024-02-17T05:15:06.778Z,-1.21
2024-02-17T05:17:36.456Z,-1.22
2024-02-17T05:20:05.370Z,-1.24
2024-02-17T05:22:33.330Z,-1.25
2024-02-17T05:25:01.711Z,-1.25
2024-02-17T05:27:29.567Z,-1.24
2024-02-17T05:29:58.159Z,-1.24
2024-02-17T05:32:28.382Z,-1.23
2024-02-17T05:34:59.251Z,-1.23
2024-02-17T05:37:27.703Z,-1.22
2024-02-17T05:39:55.878Z,-1.21
2024-02-17T05:42:24.844Z,-1.22
2024-02-17T05:44:52.921Z,-1.24
2024-02-17T05:47:20.797Z,-1.23
2024-02-17T05:49:49.362Z,-1.19
2024-02-17T05:52:17.626Z,-1.15
2024-02-17T05:54:46.017Z,-1.10
2024-02-17T05:57:14.137Z,-1.07
2024-02-17T05:59:42.195Z,-1.04
2024-02-17T06:02:10.049Z,-1.03
2024-02-17T06:04:38.388Z,-1.01
2024-02-17T06:07:06.615Z,-0.99
2024-02-17T06:09:34.725Z,-0.96
2024-02-17T06:12:02.695Z,-0.96
2024-02-17T06:14:30.595Z,-0.94
2024-02-17T06:16:58.733Z,-0.91
2024-02-17T06:19:45.559Z,-0.86
2024-02-17T06:22:13.681Z,-0.81
2024-02-17T06:24:41.891Z,-0.76
2024-02-17T06:27:10.147Z,-0.69
2024-02-17T06:29:38.410Z,-0.60
2024-02-17T06:32:06.705Z,-0.51
2024-02-17T06:34:34.924Z,-0.39
2024-02-17T06:37:05.127Z,-0.27
2024-02-17T06:39:33.134Z,-0.15
2024-02-17T06:42:01.636Z,-0.04
2024-02-17T06:44:29.705Z,0.08
2024-02-17T06:46:57.877Z,0.19
2024-02-17T06:49:26.397Z,0.32
2024-02-17T06:51:54.365Z,0.44
2024-02-17T06:54:22.628Z,0.55
2024-02-17T06:56:50.574Z,0.68
2024-02-17T06:59:18.556Z,0.79
2024-02-17T07:01:46.553Z,0.90
2024-02-17T07:04:14.593Z,1.05
2024-02-17T07:06:44.663Z,1.20
2024-02-17T07:09:16.045Z,1.37
2024-02-17T07:11:43.963Z,1.54
2024-02-17T07:14:13.706Z,1.72
2024-02-17T07:16:41.531Z,1.88
2024-02-17T07:19:09.429Z,2.07
2024-02-17T07:21:37.667Z,2.26
2024-02-17T07:24:06.266Z,2.47
2024-02-17T07:26:34.439Z,2.68
2024-02-17T07:29:02.889Z,2.88
2024-02-17T07:31:38.437Z,3.07
2024-02-17T07:34:07.198Z,3.27
2024-02-17T07:36:35.525Z,3.45
2024-02-17T07:39:03.770Z,3.63
2024-02-17T07:41:31.746Z,3.83
2024-02-17T07:43:59.713Z,4.07
2024-02-17T07:46:27.997Z,4.32
2024-02-17T07:48:56.038Z,4.55
2024-02-17T07:51:24.106Z,4.74
2024-02-17T07:53:52.058Z,4.94
2024-02-17T07:56:19.947Z,5.17
2024-02-17T07:58:48.354Z,5.37
2024-02-17T08:01:16.339Z,5.55
2024-02-17T08:03:44.816Z,5.72
2024-02-17T08:06:13.391Z,5.88
2024-02-17T08:08:42.814Z,6.04
2024-02-17T08:11:10.972Z,6.21
2024-02-17T08:13:42.768Z,6.36
2024-02-17T08:16:10.868Z,6.54
2024-02-17T08:18:43.644Z,6.64
2024-02-17T08:21:11.786Z,6.73
2024-02-17T08:23:42.298Z,6.83
2024-02-17T08:26:13.444Z,6.95
2024-02-17T08:28:41.528Z,7.07
2024-02-17T08:31:09.344Z,7.14
2024-02-17T08:33:37.868Z,7.18
2024-02-17T08:36:06.369Z,7.24
2024-02-17T08:38:34.773Z,7.29
2024-02-17T08:41:06.361Z,7.29
2024-02-17T08:43:34.228Z,7.39
2024-02-17T08:46:02.499Z,7.48
2024-02-17T08:48:30.771Z,7.61
2024-02-17T08:50:58.949Z,7.78
2024-02-17T08:53:27.348Z,7.97
2024-02-17T08:55:55.315Z,8.15
2024-02-17T08:58:23.236Z,8.25
2024-02-17T09:00:51.312Z,8.31
2024-02-17T09:03:19.591Z,8.43
2024-02-17T09:05:47.720Z,8.63
2024-02-17T09:08:15.777Z,8.81
2024-02-17T09:10:43.972Z,9.00
2024-02-17T09:13:11.911Z,9.14
2024-02-17T09:15:40.119Z,9.34
2024-02-17T09:18:08.485Z,9.57
2024-02-17T09:20:36.551Z,9.80
2024-02-17T09:23:06.984Z,10.10
2024-02-17T09:25:35.018Z,10.42
2024-02-17T09:28:03.134Z,10.74
2024-02-17T09:30:34.906Z,11.11
2024-02-17T09:33:04.314Z,11.56
2024-02-17T09:35:32.795Z,11.99
2024-02-17T09:38:00.818Z,12.42
2024-02-17T09:40:28.703Z,12.80
2024-02-17T09:42:57.139Z,13.20
2024-02-17T09:45:25.380Z,13.63
2024-02-17T09:47:55.157Z,13.97
2024-02-17T09:50:24.093Z,14.36
2024-02-17T09:52:53.812Z,14.78
2024-02-17T09:55:23.752Z,15.25
2024-02-17T09:57:55.553Z,15.60
2024-02-17T10:00:24.482Z,15.96
2024-02-17T10:02:53.716Z,16.24
2024-02-17T10:05:22.888Z,16.66
2024-02-17T10:07:52.013Z,16.95
2024-02-17T10:10:20.972Z,17.29
2024-02-17T10:12:56.191Z,17.37
2024-02-17T10:15:24.984Z,17.46
2024-02-17T10:17:54.150Z,17.41
2024-02-17T10:20:22.736Z,17.78
2024-02-17T10:22:51.131Z,18.12
2024-02-17T10:25:21.065Z,18.34
2024-02-17T10:27:51.446Z,18.56
2024-02-17T10:30:22.572Z,18.69
2024-02-17T10:32:50.949Z,18.69
2024-02-17T10:35:19.541Z,19.16
2024-02-17T10:37:49.155Z,19.68
2024-02-17T10:40:17.436Z,20.26
2024-02-17T10:42:48.057Z,20.54
2024-02-17T10:45:16.474Z,21.16
2024-02-17T10:47:46.465Z,21.21
2024-02-17T10:50:18.117Z,21.35
2024-02-17T10:52:50.681Z,21.98
2024-02-17T10:55:23.146Z,21.99
2024-02-17T10:57:58.631Z,22.39
2024-02-17T11:00:27.010Z,22.80
2024-02-17T11:02:56.592Z,23.49
2024-02-17T11:05:25.270Z,23.85
2024-02-17T11:07:53.649Z,23.87
2024-02-17T11:10:28.606Z,24.20
2024-02-17T11:12:57.308Z,24.76
2024-02-17T11:15:25.441Z,25.13
2024-02-17T11:17:57.945Z,25.10
2024-02-17T11:20:27.137Z,25.07
2024-02-17T11:23:02.382Z,25.62
2024-02-17T11:25:30.979Z,25.96
2024-02-17T11:27:59.570Z,26.49
2024-02-17T11:30:28.080Z,26.34
2024-02-17T11:32:59.819Z,26.30
2024-02-17T11:35:29.789Z,26.22
2024-02-17T11:37:58.690Z,26.28
2024-02-17T11:40:27.940Z,26.82
2024-02-17T11:42:56.954Z,26.86
2024-02-17T11:45:26.232Z,27.35
2024-02-17T11:47:54.343Z,27.46
2024-02-17T11:50:22.374Z,26.97
2024-02-17T11:52:50.790Z,26.89
2024-02-17T11:55:19.628Z,27.37
2024-02-17T11:57:47.773Z,27.66
2024-02-17T12:00:17.449Z,27.23
2024-02-17T12:02:49.332Z,25.75
2024-02-17T12:05:20.305Z,26.14
2024-02-17T12:07:48.757Z,26.51
2024-02-17T12:10:16.887Z,26.95
2024-02-17T12:12:45.352Z,26.88
2024-02-17T12:15:14.511Z,26.90
2024-02-17T12:17:46.570Z,27.42
2024-02-17T12:20:16.658Z,27.38
2024-02-17T12:22:47.167Z,27.92
2024-02-17T12:25:16.037Z,28.08
2024-02-17T12:27:44.729Z,27.81
2024-02-17T12:30:15.262Z,27.21
2024-02-17T12:32:43.933Z,27.17
2024-02-17T12:35:19.817Z,26.91
2024-02-17T12:37:49.476Z,27.03
2024-02-17T12:40:18.280Z,27.57
2024-02-17T12:42:50.955Z,27.41
2024-02-17T12:45:29.572Z,26.78
2024-02-17T12:47:58.141Z,26.84
2024-02-17T12:50:26.776Z,27.00
2024-02-17T12:53:07.400Z,27.87
2024-02-17T12:55:38.240Z,27.47
2024-02-17T12:58:06.449Z,27.01
2024-02-17T13:00:35.431Z,27.14
2024-02-17T13:03:04.570Z,27.45
2024-02-17T13:05:32.664Z,27.73
2024-02-17T13:08:01.123Z,28.13
2024-02-17T13:10:29.408Z,28.70
2024-02-17T13:12:57.444Z,28.77
2024-02-17T13:15:25.621Z,28.56
2024-02-17T13:17:53.757Z,28.78
2024-02-17T13:20:21.830Z,29.00
2024-02-17T13:22:50.205Z,28.57
2024-02-17T13:25:18.332Z,28.56
2024-02-17T13:27:47.081Z,28.35
2024-02-17T13:30:15.792Z,27.79
2024-02-17T13:32:45.305Z,26.56
2024-02-17T13:35:14.083Z,26.70
2024-02-17T13:37:46.004Z,26.24
2024-02-17T13:40:14.504Z,26.22
2024-02-17T13:42:42.966Z,25.74
2024-02-17T13:45:20.116Z,24.74
2024-02-17T13:47:48.272Z,25.27
2024-02-17T13:50:17.813Z,24.71
2024-02-17T13:52:47.506Z,25.17
2024-02-17T13:55:17.449Z,24.48
2024-02-17T13:57:45.717Z,24.53
2024-02-17T14:00:17.912Z,24.24
2024-02-17T14:02:46.375Z,24.29
2024-02-17T14:05:14.697Z,23.64
2024-02-17T14:07:42.643Z,23.61
2024-02-17T14:10:10.505Z,24.21
2024-02-17T14:12:38.499Z,24.31
2024-02-17T14:15:07.050Z,24.62
2024-02-17T14:17:35.178Z,24.82
2024-02-17T14:20:03.316Z,24.53
2024-02-17T14:22:31.698Z,24.03
2024-02-17T14:24:59.892Z,23.22
2024-02-17T14:27:27.899Z,22.28
2024-02-17T14:29:57.164Z,21.70
2024-02-17T14:32:25.793Z,21.21
2024-02-17T14:34:54.687Z,20.41
2024-02-17T14:37:22.978Z,19.41
2024-02-17T14:39:51.471Z,18.62
2024-02-17T14:42:19.728Z,18.00
2024-02-17T14:44:47.807Z,17.43
2024-02-17T14:47:16.079Z,17.14
2024-02-17T14:49:44.168Z,16.86
2024-02-17T14:52:12.320Z,16.33
2024-02-17T14:54:43.259Z,16.25
2024-02-17T14:57:14.019Z,16.02
2024-02-17T14:59:42.462Z,15.77
2024-02-17T15:02:10.735Z,15.57
2024-02-17T15:04:38.839Z,15.34
2024-02-17T15:07:06.989Z,15.20
2024-02-17T15:09:35.491Z,15.12
2024-02-17T15:12:03.762Z,14.84
2024-02-17T15:14:31.727Z,14.69
2024-02-17T15:17:00.063Z,14.66
2024-02-17T15:19:28.036Z,14.58
2024-02-17T15:21:56.501Z,14.54
2024-02-17T15:24:28.049Z,14.44
2024-02-17T15:26:56.228Z,14.27
2024-02-17T15:29:24.266Z,14.13
2024-02-17T15:31:52.140Z,14.03
2024-02-17T15:34:21.489Z,13.88
2024-02-17T15:36:49.584Z,13.75
2024-02-17T15:39:17.537Z,13.67
2024-02-17T15:41:45.754Z,13.53
2024-02-17T15:44:13.818Z,13.36
2024-02-17T15:46:41.687Z,13.22
2024-02-17T15:49:09.951Z,13.09
2024-02-17T15:51:39.575Z,12.93
2024-02-17T15:54:07.849Z,12.74
2024-02-17T15:56:35.767Z,12.61
2024-02-17T15:59:03.876Z,12.50
2024-02-17T16:01:32.131Z,12.41
2024-02-17T16:04:00.609Z,12.29
2024-02-17T16:06:29.156Z,12.20
2024-02-17T16:08:57.406Z,12.11
2024-02-17T16:11:25.652Z,12.00
2024-02-17T16:13:54.162Z,11.90
2024-02-17T16:16:28.900Z,11.81
2024-02-17T16:19:00.854Z,11.73
2024-02-17T16:21:29.586Z,11.60
2024-02-17T16:23:58.813Z,11.48
2024-02-17T16:26:27.454Z,11.39
2024-02-17T16:28:57.043Z,11.28
2024-02-17T16:31:25.511Z,11.15
2024-02-17T16:33:53.891Z,11.03
2024-02-17T16:36:22.067Z,10.92
2024-02-17T16:39:08.680Z,10.81
2024-02-17T16:41:38.303Z,10.67
2024-02-17T16:44:07.197Z,10.53
2024-02-17T16:46:35.226Z,10.43
2024-02-17T16:49:03.269Z,10.29
2024-02-17T16:51:34.648Z,10.19
2024-02-17T16:54:03.093Z,10.12
2024-02-17T16:56:31.174Z,10.05
2024-02-17T16:58:59.499Z,9.97
2024-02-17T17:01:27.576Z,9.83
2024-02-17T17:03:55.590Z,9.72
2024-02-17T17:06:23.692Z,9.63
2024-02-17T17:08:52.091Z,9.50
2024-02-17T17:11:22.365Z,9.33
2024-02-17T17:13:51.311Z,9.27
2024-02-17T17:16:19.387Z,9.23
2024-02-17T17:18:47.710Z,9.20
2024-02-17T17:21:16.174Z,9.15
2024-02-17T17:23:44.624Z,9.11
2024-02-17T17:26:14.980Z,9.03
2024-02-17T17:28:43.299Z,8.91
2024-02-17T17:31:11.432Z,8.80
2024-02-17T17:33:40.523Z,8.72
2024-02-17T17:36:08.576Z,8.65
2024-02-17T17:38:36.841Z,8.57
2024-02-17T17:41:04.908Z,8.48
2024-02-17T17:43:38.843Z,8.41
2024-02-17T17:46:08.076Z,8.31
2024-02-17T17:48:36.675Z,8.21
2024-02-17T17:51:05.078Z,8.18
2024-02-17T17:53:33.186Z,8.10
2024-02-17T17:56:01.409Z,8.00
2024-02-17T17:58:29.707Z,7.89
2024-02-17T18:00:58.032Z,7.78
2024-02-17T18:03:27.894Z,7.65
2024-02-17T18:05:56.685Z,7.54
2024-02-17T18:08:27.475Z,7.44
2024-02-17T18:10:55.943Z,7.37
2024-02-17T18:13:24.602Z,7.28
2024-02-17T18:15:52.480Z,7.20
2024-02-17T18:18:20.645Z,7.14
2024-02-17T18:20:48.829Z,7.05
2024-02-17T18:23:21.990Z,7.04
2024-02-17T18:25:50.145Z,6.97
2024-02-17T18:28:18.230Z,6.91
2024-02-17T18:30:48.224Z,6.83
2024-02-17T18:33:17.738Z,6.77
2024-02-17T18:35:47.469Z,6.70
2024-02-17T18:38:16.062Z,6.64
2024-02-17T18:40:44.051Z,6.54
2024-02-17T18:43:12.165Z,6.48
2024-02-17T18:45:40.103Z,6.43
2024-02-17T18:48:08.187Z,6.37
2024-02-17T18:50:37.149Z,6.28
2024-02-17T18:53:05.205Z,6.21
2024-02-17T18:55:33.224Z,6.15
2024-02-17T18:58:02.045Z,6.10
2024-02-17T19:00:29.990Z,6.06
2024-02-17T19:02:58.259Z,5.99
2024-02-17T19:05:26.488Z,5.94
2024-02-17T19:07:54.865Z,5.86
2024-02-17T19:10:23.031Z,5.82
2024-02-17T19:12:51.503Z,5.77
2024-02-17T19:15:19.790Z,5.74
2024-02-17T19:17:48.039Z,5.71
2024-02-17T19:20:16.208Z,5.68
2024-02-17T19:22:45.024Z,5.61
2024-02-17T19:25:13.520Z,5.55
2024-02-17T19:27:42.138Z,5.49
2024-02-17T19:30:10.547Z,5.42
2024-02-17T19:32:39.108Z,5.32
2024-02-17T19:35:07.249Z,5.23
2024-02-17T19:37:35.416Z,5.19
2024-02-17T19:40:04.076Z,5.12
2024-02-17T19:42:32.302Z,5.02
2024-02-17T19:45:00.452Z,4.94
2024-02-17T19:47:29.314Z,4.90
2024-02-17T19:49:57.691Z,4.85
2024-02-17T19:52:25.617Z,4.83
2024-02-17T19:54:53.691Z,4.80
2024-02-17T19:57:22.089Z,4.78
2024-02-17T19:59:50.039Z,4.78
2024-02-17T20:02:18.279Z,4.79
2024-02-17T20:04:46.412Z,4.78
2024-02-17T20:07:14.914Z,4.77
2024-02-17T20:09:42.937Z,4.76
2024-02-17T20:12:11.108Z,4.72
2024-02-17T20:14:39.161Z,4.69
2024-02-17T20:17:07.543Z,4.61
2024-02-17T20:19:35.855Z,4.54
2024-02-17T20:22:06.349Z,4.49
2024-02-17T20:24:34.429Z,4.47
2024-02-17T20:27:02.282Z,4.45
2024-02-17T20:29:30.969Z,4.39
2024-02-17T20:32:00.032Z,4.36
2024-02-17T20:34:28.541Z,4.31
2024-02-17T20:36:59.872Z,4.23
2024-02-17T20:39:28.101Z,4.19
2024-02-17T20:41:56.417Z,4.14
2024-02-17T20:44:27.157Z,4.06
2024-02-17T20:46:55.580Z,4.03
2024-02-17T20:49:23.724Z,4.00
2024-02-17T20:51:51.923Z,3.97
2024-02-17T20:54:21.426Z,3.94
2024-02-17T20:56:49.720Z,3.92
2024-02-17T20:59:21.780Z,3.90
2024-02-17T21:01:50.499Z,3.89
2024-02-17T21:04:19.752Z,3.86
2024-02-17T21:06:48.502Z,3.85
2024-02-17T21:09:17.323Z,3.84
2024-02-17T21:11:45.724Z,3.81
2024-02-17T21:14:14.373Z,3.80
2024-02-17T21:16:43.639Z,3.78
2024-02-17T21:19:11.777Z,3.76
2024-02-17T21:21:40.177Z,3.71
2024-02-17T21:24:08.389Z,3.69
2024-02-17T21:26:36.971Z,3.65
2024-02-17T21:29:04.962Z,3.60
2024-02-17T21:31:33.047Z,3.55
2024-02-17T21:34:01.135Z,3.50
2024-02-17T21:36:30.012Z,3.42
2024-02-17T21:38:58.082Z,3.36
2024-02-17T21:41:26.168Z,3.31
2024-02-17T21:43:54.339Z,3.26
2024-02-17T21:46:22.444Z,3.23
2024-02-17T21:48:50.876Z,3.21
2024-02-17T21:51:19.480Z,3.20
2024-02-17T21:53:47.928Z,3.18
2024-02-17T21:56:15.855Z,3.16
2024-02-17T21:58:43.787Z,3.11
2024-02-17T22:01:12.037Z,3.09
2024-02-17T22:03:40.449Z,3.07
2024-02-17T22:06:09.841Z,3.07
2024-02-17T22:08:38.459Z,3.08
2024-02-17T22:11:06.534Z,3.09
2024-02-17T22:13:34.478Z,3.08
2024-02-17T22:16:02.661Z,3.06
2024-02-17T22:18:31.059Z,3.05
2024-02-17T22:20:59.118Z,3.05
2024-02-17T22:23:27.055Z,3.03
2024-02-17T22:25:55.365Z,3.02
2024-02-17T22:28:23.626Z,3.00
2024-02-17T22:30:51.851Z,2.98
2024-02-17T22:33:19.890Z,2.98
2024-02-17T22:35:48.427Z,2.95
2024-02-17T22:38:16.252Z,2.95
2024-02-17T22:40:44.266Z,2.95
2024-02-17T22:43:12.578Z,2.94
2024-02-17T22:45:40.454Z,2.94
2024-02-17T22:48:08.589Z,2.91
2024-02-17T22:50:36.706Z,2.90
2024-02-17T22:53:04.776Z,2.90
2024-02-17T22:55:33.054Z,2.91
2024-02-17T22:58:01.105Z,2.93
2024-02-17T23:00:29.230Z,2.96
2024-02-17T23:02:57.452Z,2.97
2024-02-17T23:05:25.759Z,3.00
2024-02-17T23:07:54.972Z,3.00
2024-02-17T23:10:23.751Z,2.99
2024-02-17T23:12:51.811Z,2.97
2024-02-17T23:15:20.211Z,2.98
2024-02-17T23:17:48.517Z,2.98
2024-02-17T23:20:16.658Z,2.97
2024-02-17T23:22:45.491Z,2.97
2024-02-17T23:25:13.795Z,2.96
2024-02-17T23:27:42.586Z,2.96
2024-02-17T23:30:11.663Z,2.98
2024-02-17T23:32:40.358Z,3.00
2024-02-17T23:35:08.917Z,3.00
2024-02-17T23:37:37.083Z,3.00
2024-02-17T23:40:05.430Z,2.99
2024-02-17T23:42:33.457Z,2.97
2024-02-17T23:45:01.840Z,2.93
2024-02-17T23:47:30.126Z,2.92
2024-02-17T23:49:58.154Z,2.90
2024-02-17T23:52:26.850Z,2.91
2024-02-17T23:54:55.505Z,2.93
2024-02-17T23:57:23.570Z,2.96
2024-02-17T23:59:51.462Z,2.98
